Hudson Mills, Michigan
Current Conditions -  °F | °C
As of 10:53 AM on Thursday 23 Oct 2014 (Local Time) from KARB Reporting Station
Clear Clear  
Wind Chill: 50°   Ceiling: Unl
Heat Index: 50°   Visibility: NA
Dew Point: 40°   Wind: 7mph
Humidity: 68%   Direction: 290°WNW
Pressure: 30.24"   Gusts: NA
Location:  42.3528°N, 83.8974°W
Report Text: KARB 231453Z 29006KT CLR 10/04 A3024 RMK AO2 SLP246 T01000044 53002 $
Loading
Personal Weather Stations






























Interactive Weather Map New forecast layout! Learn more

10-Day Weather Forecast

Advertisements
Track Severe Weather on mobile